NCAR-RAP Real-Time Weather Data

Output produced by METARs form (08 May 2021  02:17 UTC)
found at http://weather.rap.ucar.edu/surface/
 
KTOL 080152Z 30010KT 10SM CLR 09/M01 A2992 RMK AO2 SLP133 T00941011
KTOL 080052Z 28009KT 10SM CLR 11/M02 A2990 RMK AO2 SLP126 T01061022
KTOL 072352Z 28013KT 10SM CLR 13/M03 A2988 RMK AO2 SLP122 60005 T01281033 10150 20083 55004
KTOL 072252Z 30013KT 10SM CLR 14/M02 A2988 RMK AO2 SLP119 T01441017
KTOL 072152Z 22005KT 10SM SCT045 SCT055 13/03 A2988 RMK AO2 RAB2057E09 SLP120 P0000 T01330033
KTOL 072052Z 27005KT 10SM BKN055 OVC070 13/04 A2990 RMK AO2 SLP126 60005 T01280044 58005
KTOL 072006Z 31007KT 10SM FEW110 12/04 A2990 RMK AO2 T01220039
KTOL 071952Z 30004KT 10SM VCTS FEW041 SCT080 SCT110 11/05 A2991 RMK AO2 PK WND 28035/1921 RAE1857B24E45 SLP131 P0004 T01110050
KTOL 071947Z 31005KT 10SM VCTS SCT043 SCT070 BKN100 11/05 A2991 RMK AO2 PK WND 28035/1921 LTG DSNT S RAE1857B24E45 P0004
KTOL 071924Z 30025G35KT 9SM -RA SQ FEW040 BKN048 OVC070 11/04 A2993 RMK AO2 PK WND 28035/1921 LTG DSNT SW-N RAE1857B24 PRESRR P0000 T01110039
KTOL 071915Z VRB04KT 10SM VCTS BKN050 OVC065 13/04 A2990 RMK AO2 LTG DSNT SW-N RAE1857 P0000 T01280039
KTOL 071852Z 01004KT 10SM -RA FEW043 BKN050 OVC075 12/03 A2991 RMK AO2 LTG DSNT NW RAB22 SLP130 P0001 T01220033
KTOL 071752Z 25009KT 10SM BKN043 OVC090 14/03 A2994 RMK AO2 SLP140 T01390033 10144 20067 58018
KTOL 071652Z 28007KT 10SM SCT042 13/02 A2997 RMK AO2 SLP149 T01330022
KTOL 071552Z 25006KT 10SM CLR 12/02 A2998 RMK AO2 SLP153 T01220022
KTOL 071452Z 00000KT 10SM FEW025 11/03 A2999 RMK AO2 SLP158 T01110033 56002
KTOL 071352Z 36003KT 10SM FEW025 10/03 A3000 RMK AO2 SLP160 T01000033
KTOL 071252Z 04004KT 10SM CLR 08/03 A3000 RMK AO2 SLP160 T00830028
KTOL 071152Z 34005KT 9SM CLR 07/04 A3000 RMK AO2 SLP162 70026 T00670039 10072 20056 53009
KTOL 071138Z 31004KT 7SM SCT023 06/04 A3000 RMK AO2 T00610039
KTOL 071100Z 33007KT 8SM SCT010 OVC016 06/04 A2999 RMK AO2 T00610039
KTOL 071052Z 33005KT 8SM BKN009 OVC017 06/04 A2999 RMK AO2 SLP160 T00610039